ミラノ/マルペンサ の空港の天気 - METARとTAF

ミラノ・マルペンサ国際空港 ( LIMC / MXP ) - イタリア ミラノ
飛行場実況気象(Metar)
観測時間07/18 14:20 CEST (07/18 12:20 UTC)
風向・風速南南東 3m/s
視程10km以上
天気現象
全天の4割程度の雲 雲底高度 1520m
気温27℃
湿度51%
気圧1012hPa
METARLIMC 181220Z 15005KT 100V200 9999 SCT050 27/16 Q1012 NOSIG
過去の天気等 Google飛行場航空写真 Wunderground天気予報

過去48時間のMETAR

飛行場予報(TAF)
発表時間: 7/18 13:00 CEST (7/18 11:00 UTC)
予報対象時間: 18日14時 CEST ~ 19日20時 CEST
風向・風速不定 3m/s
視程10km以上
全天の4割程度の雲 雲底高度 2130m
18日23時 CEST ~ 19日6時 CEST に 確率 30% で一時的に
天気現象雷雨
TAF LIMC 181100Z 1812/1918 VRB05KT 9999 SCT070
PROB30 TEMPO 1821/1904 TSRA